»·PEaware :: N1128 KSBP-KSBP

N1128 :: KSBP-KSBP

FLIGHT INFORMATION

Flight Status: Arrived
Operator: Privately registered:
United States
More flights under this callsign
Pilot: Siddique N. (20419)
Aircraft: CESSNA 172 SKYHAWK
(C172)
More flights by this aircraft type
Origin: KSBP San Luis Co Regl
United States
Destination: KSBP San Luis Co Regl
United States
More flights between these airports :: More routes between these airports
Route: +
File this flight plan on PilotEdge
Remarks: cat3
Altitude:
(Current/Filed)
0ft
Speed:
(Current/Filed)
0kts
Departed: 06-Oct-18 08:41 AM
Arrived: 06-Oct-18 09:23 AM
Distance/Time
Traveled:
1nm/0:42
Distance/Time
To Go:
Arrived

Flight Plot

Page will automatically refresh every two minutes.


Map Options




Map Legend


Flown Route
Filed Route
Departure Airport
Arrival Airport
Navaid (VOR, NDB)
Fix

Horizontal Profiles

Position Reports

Time Latitude Longitude Heading Altitude Ground
Speed
06-Oct-18 08:39 35.234338 -120.632942 126 213ft 0kts
06-Oct-18 08:40 35.234278 -120.632893 158 213ft 3kts
06-Oct-18 08:41 35.233339 -120.632312 179 213ft 12kts
06-Oct-18 08:42 35.233274 -120.632329 200 212ft 0kts
06-Oct-18 08:43 35.233341 -120.634135 304 209ft 44kts
06-Oct-18 08:44 35.246378 -120.653262 310 1109ft 77kts
06-Oct-18 08:45 35.257889 -120.674669 237 1944ft 81kts
06-Oct-18 08:46 35.238318 -120.666396 149 2128ft 81kts
06-Oct-18 08:47 35.220864 -120.649126 141 2262ft 82kts
06-Oct-18 08:48 35.202282 -120.631330 144 2229ft 91kts
06-Oct-18 08:49 35.196415 -120.605119 53 1997ft 89kts
06-Oct-18 08:50 35.215746 -120.603185 311 1436ft 90kts
06-Oct-18 08:51 35.230252 -120.628433 303 450ft 88kts
06-Oct-18 08:52 35.243058 -120.649616 308 630ft 79kts
06-Oct-18 08:53 35.257136 -120.670790 309 1208ft 78kts
06-Oct-18 08:54 35.255319 -120.685742 133 1224ft 83kts
06-Oct-18 08:55 35.238841 -120.667051 141 1221ft 81kts
06-Oct-18 08:56 35.222635 -120.648564 127 1215ft 80kts
06-Oct-18 08:57 35.208925 -120.626925 129 1201ft 79kts
06-Oct-18 08:58 35.206224 -120.603254 71 1088ft 70kts
06-Oct-18 08:59 35.220575 -120.611340 304 817ft 79kts
06-Oct-18 09:00 35.230869 -120.629638 305 334ft 60kts
06-Oct-18 09:01 35.242612 -120.647278 310 673ft 74kts
06-Oct-18 09:02 35.254692 -120.667765 302 1212ft 72kts
06-Oct-18 09:03 35.262991 -120.690056 242 1236ft 78kts
06-Oct-18 09:04 35.248057 -120.677956 135 1162ft 68kts
06-Oct-18 09:05 35.234109 -120.660580 131 1213ft 71kts
06-Oct-18 09:06 35.221312 -120.642213 126 1212ft 80kts
06-Oct-18 09:07 35.208635 -120.621275 96 1174ft 73kts
06-Oct-18 09:08 35.215534 -120.600509 33 1039ft 70kts
06-Oct-18 09:09 35.224416 -120.617506 298 653ft 64kts
06-Oct-18 09:10 35.233572 -120.634231 303 209ft 49kts
06-Oct-18 09:11 35.241001 -120.646180 315 540ft 55kts
06-Oct-18 09:12 35.244801 -120.665158 232 1274ft 49kts
06-Oct-18 09:13 35.232395 -120.654254 128 1209ft 67kts
06-Oct-18 09:14 35.220785 -120.637566 130 1211ft 64kts
06-Oct-18 09:15 35.211579 -120.623132 125 1100ft 62kts
06-Oct-18 09:16 35.219671 -120.613217 329 816ft 64kts
06-Oct-18 09:17 35.229006 -120.626290 302 389ft 62kts
06-Oct-18 09:18 35.240558 -120.645136 314 552ft 59kts
06-Oct-18 09:19 35.248527 -120.658153 274 1062ft 57kts
06-Oct-18 09:20 35.239995 -120.665441 133 1244ft 65kts
06-Oct-18 09:21 35.228197 -120.650418 133 1221ft 64kts
06-Oct-18 09:22 35.216524 -120.635875 136 1180ft 55kts
06-Oct-18 09:23 35.215072 -120.617393 73 925ft 62kts
06-Oct-18 09:24 35.226754 -120.622511 306 451ft 52kts
06-Oct-18 09:25 35.234457 -120.636016 305 205ft 15kts
06-Oct-18 09:26 35.235287 -120.636324 73 205ft 8kts
06-Oct-18 09:27 35.235223 -120.634554 116 212ft 0kts
06-Oct-18 09:28 35.235223 -120.634554 116 212ft 0kts
06-Oct-18 09:29 35.235064 -120.634359 144 212ft 11kts
06-Oct-18 09:30 35.233235 -120.632267 202 213ft 0kts
06-Oct-18 09:31 35.233189 -120.632308 223 212ft 4kts
06-Oct-18 09:32 35.238039 -120.641622 308 443ft 70kts
06-Oct-18 09:33 35.246121 -120.662153 282 1147ft 69kts
06-Oct-18 09:34 35.234329 -120.662416 133 1244ft 77kts
06-Oct-18 09:35 35.220111 -120.642116 128 1198ft 78kts
06-Oct-18 09:36 35.209051 -120.620928 90 1103ft 77kts
06-Oct-18 09:37 35.222718 -120.616099 310 833ft 80kts
06-Oct-18 09:38 35.234823 -120.636613 303 204ft 59kts
06-Oct-18 09:39 35.247005 -120.656255 297 980ft 71kts

Navigation Log

Ident Type
1. KSBP Airport
2. KSBP Airport